createdAt,value
2022-08-11T00:00:49.911Z,30.70
2022-08-11T00:02:52.665Z,30.70
2022-08-11T00:04:57.029Z,30.70
2022-08-11T00:07:04.073Z,30.70
2022-08-11T00:09:15.048Z,30.70
2022-08-11T00:11:18.067Z,30.70
2022-08-11T00:13:20.995Z,30.80
2022-08-11T00:15:28.256Z,30.80
2022-08-11T00:17:33.664Z,30.80
2022-08-11T00:20:12.583Z,30.80
2022-08-11T00:22:06.948Z,30.80
2022-08-11T00:24:09.615Z,30.80
2022-08-11T00:26:13.697Z,30.80
2022-08-11T00:28:28.402Z,30.80
2022-08-11T00:30:39.553Z,30.70
2022-08-11T00:32:44.080Z,30.70
2022-08-11T00:34:48.133Z,30.70
2022-08-11T00:37:09.283Z,30.70
2022-08-11T00:39:12.192Z,30.70
2022-08-11T00:41:34.251Z,30.70
2022-08-11T00:43:38.993Z,30.70
2022-08-11T00:45:50.189Z,30.70
2022-08-11T00:48:19.756Z,30.70
2022-08-11T00:50:46.004Z,30.70
2022-08-11T00:52:59.061Z,30.70
2022-08-11T00:55:19.692Z,30.70
2022-08-11T00:57:36.903Z,30.70
2022-08-11T00:59:58.157Z,30.70
2022-08-11T01:02:05.750Z,30.70
2022-08-11T01:04:38.304Z,30.70
2022-08-11T01:07:04.214Z,30.70
2022-08-11T01:09:27.293Z,30.70
2022-08-11T01:12:00.000Z,30.70
2022-08-11T01:14:12.424Z,30.70
2022-08-11T01:16:38.192Z,30.70
2022-08-11T01:19:05.696Z,30.70
2022-08-11T01:21:41.834Z,30.70
2022-08-11T01:24:07.951Z,30.70
2022-08-11T01:26:43.583Z,30.60
2022-08-11T01:29:02.995Z,30.60
2022-08-11T01:31:28.905Z,30.70
2022-08-11T01:34:07.958Z,30.60
2022-08-11T01:36:31.592Z,30.70
2022-08-11T01:38:57.698Z,30.80
2022-08-11T01:41:04.901Z,30.80
2022-08-11T01:44:02.668Z,30.80
2022-08-11T01:46:27.189Z,30.80
2022-08-11T01:48:47.727Z,30.90
2022-08-11T01:51:01.753Z,30.90
2022-08-11T01:53:25.208Z,30.90
2022-08-11T01:55:43.518Z,30.90
2022-08-11T01:57:55.358Z,30.90
2022-08-11T02:00:15.394Z,31.00
2022-08-11T02:02:45.640Z,30.90
2022-08-11T02:04:59.321Z,30.90
2022-08-11T02:07:22.035Z,31.00
2022-08-11T02:09:55.230Z,31.00
2022-08-11T02:12:10.141Z,31.00
2022-08-11T02:14:26.452Z,31.00
2022-08-11T02:16:46.853Z,31.00
2022-08-11T02:19:14.876Z,31.00
2022-08-11T02:21:42.600Z,31.00
2022-08-11T02:24:15.889Z,31.00
2022-08-11T02:26:22.513Z,31.00
2022-08-11T02:28:47.432Z,31.00
2022-08-11T02:32:24.727Z,31.00
2022-08-11T02:34:09.417Z,31.00
2022-08-11T02:36:24.986Z,31.00
2022-08-11T02:38:45.366Z,31.00
2022-08-11T02:41:44.893Z,31.00
2022-08-11T02:44:02.337Z,31.00
2022-08-11T02:46:24.679Z,30.90
2022-08-11T02:48:51.226Z,30.90
2022-08-11T02:50:52.840Z,30.90
2022-08-11T02:53:11.213Z,30.80
2022-08-11T02:55:44.671Z,30.80
2022-08-11T02:58:04.042Z,30.70
2022-08-11T03:00:10.636Z,30.70
2022-08-11T03:02:30.207Z,30.70
2022-08-11T03:05:10.613Z,30.70
2022-08-11T03:07:28.508Z,30.60
2022-08-11T03:09:49.797Z,30.70
2022-08-11T03:12:30.252Z,30.60
2022-08-11T03:15:05.301Z,30.60
2022-08-11T03:17:29.851Z,30.60
2022-08-11T03:20:06.236Z,30.60
2022-08-11T03:22:25.112Z,30.60
2022-08-11T03:24:40.488Z,30.60
2022-08-11T03:26:57.200Z,30.60
2022-08-11T03:29:06.952Z,30.60
2022-08-11T03:31:24.894Z,30.50
2022-08-11T03:33:50.716Z,30.50
2022-08-11T03:36:10.644Z,30.50
2022-08-11T03:38:15.797Z,30.50
2022-08-11T03:40:48.230Z,30.50
2022-08-11T03:42:59.248Z,30.40
2022-08-11T03:45:40.824Z,30.50
2022-08-11T03:47:53.428Z,30.50
2022-08-11T03:49:59.867Z,30.40
2022-08-11T03:52:27.739Z,30.40
2022-08-11T03:54:53.550Z,30.40
2022-08-11T03:57:24.525Z,30.40
2022-08-11T03:59:58.635Z,30.40
2022-08-11T04:02:10.089Z,30.40
2022-08-11T04:04:32.488Z,30.50
2022-08-11T04:07:01.481Z,30.40
2022-08-11T04:09:06.176Z,30.40
2022-08-11T04:11:47.601Z,30.40
2022-08-11T04:14:35.917Z,30.40
2022-08-11T04:16:54.800Z,30.40
2022-08-11T04:18:56.451Z,30.40
2022-08-11T04:21:26.028Z,30.30
2022-08-11T04:24:35.554Z,30.40
2022-08-11T04:26:53.542Z,30.30
2022-08-11T04:29:36.467Z,30.30
2022-08-11T04:32:31.488Z,30.40
2022-08-11T04:34:36.258Z,30.30
2022-08-11T04:37:20.807Z,30.30
2022-08-11T04:39:57.050Z,30.30
2022-08-11T04:42:43.676Z,30.30
2022-08-11T04:45:05.269Z,30.30
2022-08-11T04:47:13.128Z,30.30
2022-08-11T04:50:04.577Z,30.30
2022-08-11T04:52:37.723Z,30.30
2022-08-11T04:55:37.848Z,30.30
2022-08-11T04:58:17.753Z,30.30
2022-08-11T05:00:38.438Z,30.30
2022-08-11T05:03:12.420Z,30.20
2022-08-11T05:05:35.136Z,30.20
2022-08-11T05:07:58.570Z,30.20
2022-08-11T05:10:32.509Z,30.30
2022-08-11T05:12:49.249Z,30.20
2022-08-11T05:15:11.654Z,30.20
2022-08-11T05:17:40.460Z,30.20
2022-08-11T05:20:06.253Z,30.20
2022-08-11T05:22:30.185Z,30.30
2022-08-11T05:25:07.225Z,30.20
2022-08-11T05:27:33.453Z,30.20
2022-08-11T05:30:06.818Z,30.20
2022-08-11T05:32:34.051Z,30.20
2022-08-11T05:34:51.298Z,30.20
2022-08-11T05:37:25.080Z,30.20
2022-08-11T05:39:48.631Z,30.20
2022-08-11T05:42:09.958Z,30.20
2022-08-11T05:44:50.662Z,30.10
2022-08-11T05:47:12.539Z,30.20
2022-08-11T05:49:34.249Z,30.20
2022-08-11T05:52:05.268Z,30.20
2022-08-11T05:54:35.179Z,30.20
2022-08-11T05:56:56.409Z,30.20
2022-08-11T05:58:58.904Z,30.10
2022-08-11T06:01:01.414Z,30.20
2022-08-11T06:03:07.338Z,30.20
2022-08-11T06:05:10.151Z,30.20
2022-08-11T06:07:17.562Z,30.20
2022-08-11T06:09:46.876Z,30.20
2022-08-11T06:11:48.765Z,30.20
2022-08-11T06:13:52.711Z,30.20
2022-08-11T06:15:55.984Z,30.10
2022-08-11T06:18:01.143Z,30.20
2022-08-11T06:20:11.760Z,30.20
2022-08-11T06:22:19.672Z,30.20
2022-08-11T06:24:21.779Z,30.10
2022-08-11T06:26:23.780Z,30.10
2022-08-11T06:28:37.716Z,30.10
2022-08-11T06:30:42.785Z,30.10
2022-08-11T06:32:46.370Z,30.10
2022-08-11T06:35:06.650Z,30.10
2022-08-11T06:37:22.593Z,30.10
2022-08-11T06:39:37.632Z,30.10
2022-08-11T06:41:48.393Z,30.10
2022-08-11T06:43:55.339Z,30.10
2022-08-11T06:46:06.793Z,30.10
2022-08-11T06:48:21.083Z,30.10
2022-08-11T06:50:42.108Z,30.20
2022-08-11T06:52:46.876Z,30.20
2022-08-11T06:55:06.425Z,30.20
2022-08-11T06:57:32.508Z,30.10
2022-08-11T06:59:53.891Z,30.20
2022-08-11T07:02:11.435Z,30.10
2022-08-11T07:04:17.465Z,30.10
2022-08-11T07:06:50.381Z,30.10
2022-08-11T07:09:45.713Z,30.10
2022-08-11T07:12:27.957Z,30.10
2022-08-11T07:14:50.441Z,30.20
2022-08-11T07:16:54.074Z,30.10
2022-08-11T07:19:23.527Z,30.10
2022-08-11T07:22:02.845Z,30.10
2022-08-11T07:24:34.469Z,30.20
2022-08-11T07:27:14.949Z,30.10
2022-08-11T07:29:17.245Z,30.10
2022-08-11T07:31:31.506Z,30.10
2022-08-11T07:34:08.529Z,30.10
2022-08-11T07:36:14.539Z,30.20
2022-08-11T07:38:25.208Z,30.10
2022-08-11T07:40:28.232Z,30.10
2022-08-11T07:42:35.798Z,30.10
2022-08-11T07:45:00.105Z,30.20
2022-08-11T07:47:20.763Z,30.20
2022-08-11T07:49:40.947Z,30.10
2022-08-11T07:52:02.909Z,30.10
2022-08-11T07:54:16.227Z,30.10
2022-08-11T07:56:19.658Z,30.10
2022-08-11T07:58:57.602Z,30.10
2022-08-11T08:01:22.445Z,30.10
2022-08-11T08:03:54.181Z,30.10
2022-08-11T08:06:35.610Z,30.10
2022-08-11T08:08:56.422Z,30.10
2022-08-11T08:11:16.937Z,30.20
2022-08-11T08:13:37.252Z,30.20
2022-08-11T08:15:58.225Z,30.20
2022-08-11T08:18:09.015Z,30.10
2022-08-11T08:20:37.765Z,30.10
2022-08-11T08:22:42.877Z,30.10
2022-08-11T08:24:49.316Z,30.10
2022-08-11T08:27:00.112Z,30.20
2022-08-11T08:29:34.560Z,30.20
2022-08-11T08:31:36.415Z,30.10
2022-08-11T08:33:41.941Z,30.20
2022-08-11T08:35:54.103Z,30.20
2022-08-11T08:37:59.721Z,30.20
2022-08-11T08:40:01.622Z,30.20
2022-08-11T08:42:10.013Z,30.20
2022-08-11T08:44:37.080Z,30.20
2022-08-11T08:46:49.395Z,30.20
2022-08-11T08:48:53.570Z,30.20
2022-08-11T08:51:22.113Z,30.20
2022-08-11T08:53:29.555Z,30.20
2022-08-11T08:55:32.056Z,30.20
2022-08-11T08:57:38.969Z,30.20
2022-08-11T08:59:48.433Z,30.20
2022-08-11T09:02:02.702Z,30.20
2022-08-11T09:04:11.743Z,30.20
2022-08-11T09:06:17.129Z,30.20
2022-08-11T09:08:21.606Z,30.20
2022-08-11T09:10:24.761Z,30.20
2022-08-11T09:12:45.883Z,30.20
2022-08-11T09:15:05.071Z,30.30
2022-08-11T09:17:06.880Z,30.30
2022-08-11T09:19:08.932Z,30.30
2022-08-11T09:21:14.727Z,30.20
2022-08-11T09:24:19.168Z,30.20
2022-08-11T09:26:36.108Z,30.20
2022-08-11T09:28:38.139Z,30.20
2022-08-11T09:30:43.074Z,30.30
2022-08-11T09:32:44.813Z,30.30
2022-08-11T09:34:47.514Z,30.20
2022-08-11T09:37:08.843Z,30.20
2022-08-11T09:39:31.493Z,30.20
2022-08-11T09:42:00.687Z,30.20
2022-08-11T09:44:15.460Z,30.30
2022-08-11T09:46:26.585Z,30.30
2022-08-11T09:48:38.597Z,30.30
2022-08-11T09:50:40.758Z,30.30
2022-08-11T09:53:09.948Z,30.30
2022-08-11T09:55:11.490Z,30.30
2022-08-11T09:57:32.420Z,30.30
2022-08-11T09:59:34.680Z,30.30
2022-08-11T10:01:47.381Z,30.30
2022-08-11T10:03:49.372Z,30.30
2022-08-11T10:06:22.533Z,30.30
2022-08-11T10:08:39.160Z,30.30
2022-08-11T10:10:41.616Z,30.30
2022-08-11T10:12:51.276Z,30.30
2022-08-11T10:15:14.456Z,30.30
2022-08-11T10:17:20.504Z,30.30
2022-08-11T10:19:22.944Z,30.30
2022-08-11T10:21:36.103Z,30.30
2022-08-11T10:24:00.218Z,30.30
2022-08-11T10:26:26.639Z,30.30
2022-08-11T10:28:44.734Z,30.30
2022-08-11T10:31:12.632Z,30.30
2022-08-11T10:33:42.842Z,30.30
2022-08-11T10:35:50.992Z,30.30
2022-08-11T10:38:15.965Z,30.40
2022-08-11T10:40:22.225Z,30.40
2022-08-11T10:42:57.111Z,30.30
2022-08-11T10:45:01.639Z,30.30
2022-08-11T10:47:22.955Z,30.40
2022-08-11T10:49:26.725Z,30.30
2022-08-11T10:51:50.963Z,30.30
2022-08-11T10:54:12.921Z,30.40
2022-08-11T10:56:34.105Z,30.30
2022-08-11T10:58:50.079Z,30.30
2022-08-11T11:00:56.809Z,30.40
2022-08-11T11:03:22.085Z,30.40
2022-08-11T11:05:31.063Z,30.40
2022-08-11T11:07:56.082Z,30.40
2022-08-11T11:10:01.943Z,30.40
2022-08-11T11:12:35.419Z,30.40
2022-08-11T11:15:17.408Z,30.40
2022-08-11T11:17:56.719Z,30.40
2022-08-11T11:20:00.437Z,30.50
2022-08-11T11:22:22.341Z,30.50
2022-08-11T11:25:00.455Z,30.40
2022-08-11T11:27:33.032Z,30.40
2022-08-11T11:30:04.999Z,30.50
2022-08-11T11:32:17.756Z,30.50
2022-08-11T11:34:52.784Z,30.50
2022-08-11T11:36:57.618Z,30.50
2022-08-11T11:39:01.613Z,30.40
2022-08-11T11:41:23.605Z,30.40
2022-08-11T11:43:25.444Z,30.40
2022-08-11T11:45:27.417Z,30.50
2022-08-11T11:47:31.231Z,30.50
2022-08-11T11:49:35.969Z,30.50
2022-08-11T11:51:38.150Z,30.60
2022-08-11T11:53:43.716Z,30.60
2022-08-11T11:55:46.104Z,30.50
2022-08-11T11:58:07.047Z,30.60
2022-08-11T12:00:33.437Z,30.60
2022-08-11T12:02:36.485Z,30.60
2022-08-11T12:04:41.490Z,30.60
2022-08-11T12:06:43.860Z,30.60
2022-08-11T12:08:49.443Z,30.60
2022-08-11T12:11:38.379Z,30.60
2022-08-11T12:13:42.524Z,30.60
2022-08-11T12:16:31.229Z,30.60
2022-08-11T12:18:07.566Z,30.60
2022-08-11T12:20:32.155Z,30.60
2022-08-11T12:22:50.189Z,30.60
2022-08-11T12:25:10.884Z,30.60
2022-08-11T12:27:25.479Z,30.70
2022-08-11T12:29:28.264Z,30.60
2022-08-11T12:31:30.779Z,30.60
2022-08-11T12:33:35.167Z,30.60
2022-08-11T12:35:39.310Z,30.60
2022-08-11T12:38:10.692Z,30.60
2022-08-11T12:40:42.729Z,30.60
2022-08-11T12:43:24.319Z,30.60
2022-08-11T12:45:40.964Z,30.60
2022-08-11T12:48:47.827Z,30.60
2022-08-11T12:50:48.603Z,30.60
2022-08-11T12:52:54.097Z,30.70
2022-08-11T12:55:00.491Z,30.70
2022-08-11T12:57:37.850Z,30.70
2022-08-11T13:00:00.346Z,30.70
2022-08-11T13:02:22.684Z,30.70
2022-08-11T13:04:45.979Z,30.70
2022-08-11T13:06:52.654Z,30.70
2022-08-11T13:09:01.054Z,30.70
2022-08-11T13:11:23.017Z,30.70
2022-08-11T13:13:52.439Z,30.70
2022-08-11T13:15:49.683Z,30.70
2022-08-11T13:17:53.990Z,30.70
2022-08-11T13:19:58.938Z,30.70
2022-08-11T13:22:02.426Z,30.70
2022-08-11T13:24:04.560Z,30.70
2022-08-11T13:26:08.822Z,30.70
2022-08-11T13:28:12.588Z,30.70
2022-08-11T13:30:39.111Z,30.70
2022-08-11T13:32:45.209Z,30.70
2022-08-11T13:34:48.022Z,30.80
2022-08-11T13:36:55.705Z,30.70
2022-08-11T13:39:01.295Z,30.70
2022-08-11T13:41:23.968Z,30.80
2022-08-11T13:43:26.048Z,30.70
2022-08-11T13:45:28.085Z,30.70
2022-08-11T13:47:30.710Z,30.80
2022-08-11T13:49:35.700Z,30.80
2022-08-11T13:51:39.931Z,30.70
2022-08-11T13:53:43.659Z,30.80
2022-08-11T13:55:52.134Z,30.80
2022-08-11T13:58:06.489Z,30.80
2022-08-11T14:00:27.606Z,30.80
2022-08-11T14:02:31.657Z,30.80
2022-08-11T14:04:52.801Z,30.80
2022-08-11T14:07:00.016Z,30.80
2022-08-11T14:09:03.548Z,30.80
2022-08-11T14:12:22.224Z,30.80
2022-08-11T14:13:51.412Z,30.80
2022-08-11T14:15:53.656Z,30.80
2022-08-11T14:18:03.114Z,30.90
2022-08-11T14:20:40.097Z,30.80
2022-08-11T14:22:32.837Z,30.80
2022-08-11T14:24:39.827Z,30.90
2022-08-11T14:26:43.459Z,30.90
2022-08-11T14:28:46.016Z,30.90
2022-08-11T14:31:01.313Z,30.90
2022-08-11T14:33:16.989Z,30.90
2022-08-11T14:35:20.303Z,30.90
2022-08-11T14:37:25.590Z,30.90
2022-08-11T14:39:37.236Z,30.90
2022-08-11T14:42:10.088Z,30.90
2022-08-11T14:44:32.664Z,30.90
2022-08-11T14:46:53.339Z,30.90
2022-08-11T14:48:55.262Z,30.90
2022-08-11T14:50:57.432Z,30.90
2022-08-11T14:53:07.460Z,30.90
2022-08-11T14:55:28.992Z,31.00
2022-08-11T14:57:55.123Z,31.00
2022-08-11T14:59:57.925Z,31.00
2022-08-11T15:02:21.628Z,31.00
2022-08-11T15:04:36.152Z,31.00
2022-08-11T15:06:38.509Z,31.00
2022-08-11T15:08:55.631Z,31.00
2022-08-11T15:10:57.364Z,31.00
2022-08-11T15:13:00.517Z,31.00
2022-08-11T15:15:23.320Z,31.00
2022-08-11T15:17:43.548Z,31.00
2022-08-11T15:20:04.819Z,31.10
2022-08-11T15:22:28.053Z,31.10
2022-08-11T15:24:31.081Z,31.00
2022-08-11T15:26:58.747Z,31.00
2022-08-11T15:29:23.085Z,31.00
2022-08-11T15:31:49.215Z,31.00
2022-08-11T15:34:14.515Z,31.00
2022-08-11T15:36:39.693Z,31.00
2022-08-11T15:38:54.873Z,31.10
2022-08-11T15:41:16.915Z,31.10
2022-08-11T15:43:46.644Z,31.10
2022-08-11T15:45:52.679Z,31.10
2022-08-11T15:48:06.295Z,31.10
2022-08-11T15:50:14.903Z,31.10
2022-08-11T15:52:21.131Z,31.10
2022-08-11T15:54:28.810Z,31.10
2022-08-11T15:56:32.664Z,31.10
2022-08-11T15:59:10.471Z,31.10
2022-08-11T16:01:42.360Z,31.10
2022-08-11T16:04:12.987Z,31.10
2022-08-11T16:06:15.447Z,31.10
2022-08-11T16:08:24.574Z,31.10
2022-08-11T16:10:35.647Z,31.20
2022-08-11T16:13:03.779Z,31.10
2022-08-11T16:15:27.399Z,31.10
2022-08-11T16:17:34.224Z,31.20
2022-08-11T16:19:37.467Z,31.20
2022-08-11T16:21:40.249Z,31.20
2022-08-11T16:23:44.925Z,31.10
2022-08-11T16:27:04.749Z,31.20
2022-08-11T16:28:14.564Z,31.20
2022-08-11T16:30:17.061Z,31.20
2022-08-11T16:32:24.183Z,31.20
2022-08-11T16:34:44.432Z,31.20
2022-08-11T16:37:04.648Z,31.20
2022-08-11T16:39:08.102Z,31.20
2022-08-11T16:41:12.377Z,31.20
2022-08-11T16:43:35.767Z,31.20
2022-08-11T16:45:58.732Z,31.20
2022-08-11T16:48:35.670Z,31.20
2022-08-11T16:50:24.143Z,31.20
2022-08-11T16:52:25.855Z,31.20
2022-08-11T16:54:28.073Z,31.20
2022-08-11T16:56:51.309Z,31.20
2022-08-11T16:59:17.063Z,31.20
2022-08-11T17:01:22.854Z,31.20
2022-08-11T17:03:43.342Z,31.20
2022-08-11T17:06:10.077Z,31.20
2022-08-11T17:08:30.909Z,31.20
2022-08-11T17:11:01.530Z,31.20
2022-08-11T17:13:09.037Z,31.20
2022-08-11T17:15:37.071Z,31.30
2022-08-11T17:17:39.627Z,31.30
2022-08-11T17:20:40.880Z,31.30
2022-08-11T17:22:30.013Z,31.30
2022-08-11T17:24:39.131Z,31.30
2022-08-11T17:26:58.703Z,31.30
2022-08-11T17:29:02.835Z,31.30
2022-08-11T17:31:24.715Z,31.30
2022-08-11T17:33:46.161Z,31.30
2022-08-11T17:35:48.868Z,31.30
2022-08-11T17:37:52.479Z,31.30
2022-08-11T17:39:55.563Z,31.30
2022-08-11T17:42:19.403Z,31.30
2022-08-11T17:44:40.195Z,31.30
2022-08-11T17:47:05.910Z,31.20
2022-08-11T17:49:11.215Z,31.30
2022-08-11T17:51:37.676Z,31.30
2022-08-11T17:54:24.103Z,31.30
2022-08-11T17:56:44.210Z,31.30
2022-08-11T17:59:06.901Z,31.30
2022-08-11T18:01:11.120Z,31.30
2022-08-11T18:03:29.618Z,31.30
2022-08-11T18:05:34.221Z,31.30
2022-08-11T18:07:56.321Z,31.30
2022-08-11T18:10:17.868Z,31.30
2022-08-11T18:12:38.076Z,31.30
2022-08-11T18:15:02.174Z,31.30
2022-08-11T18:17:22.957Z,31.30
2022-08-11T18:19:43.063Z,31.30
2022-08-11T18:22:15.686Z,31.30
2022-08-11T18:24:39.560Z,31.30
2022-08-11T18:27:03.353Z,31.30
2022-08-11T18:29:26.803Z,31.30
2022-08-11T18:31:51.036Z,31.30
2022-08-11T18:34:13.770Z,31.20
2022-08-11T18:36:42.538Z,31.30
2022-08-11T18:39:06.412Z,31.20
2022-08-11T18:41:28.658Z,31.20
2022-08-11T18:43:53.650Z,31.20
2022-08-11T18:46:20.497Z,31.30
2022-08-11T18:51:30.934Z,31.20
2022-08-11T18:53:47.052Z,31.20
2022-08-11T18:56:08.273Z,31.20
2022-08-11T18:58:30.501Z,31.20
2022-08-11T19:00:53.367Z,31.20
2022-08-11T19:03:15.376Z,31.20
2022-08-11T19:06:36.128Z,31.20
2022-08-11T19:08:20.586Z,31.20
2022-08-11T19:10:41.356Z,31.20
2022-08-11T19:13:02.145Z,31.20
2022-08-11T19:15:24.099Z,31.20
2022-08-11T19:17:46.165Z,31.30
2022-08-11T19:20:07.692Z,31.20
2022-08-11T19:22:29.084Z,31.20
2022-08-11T19:24:51.147Z,31.20
2022-08-11T19:27:13.350Z,31.10
2022-08-11T19:30:07.956Z,31.20
2022-08-11T19:32:19.238Z,31.20
2022-08-11T19:34:42.738Z,31.20
2022-08-11T19:37:03.928Z,31.20
2022-08-11T19:39:25.478Z,31.10
2022-08-11T19:41:56.914Z,31.20
2022-08-11T19:44:19.245Z,31.20
2022-08-11T19:46:41.983Z,31.20
2022-08-11T19:49:04.756Z,31.10
2022-08-11T19:51:26.491Z,31.10
2022-08-11T19:53:48.725Z,31.10
2022-08-11T19:56:11.980Z,31.10
2022-08-11T19:58:33.351Z,31.10
2022-08-11T20:00:54.143Z,31.10
2022-08-11T20:03:14.549Z,31.10
2022-08-11T20:05:34.715Z,31.10
2022-08-11T20:07:56.014Z,31.10
2022-08-11T20:10:20.884Z,31.10
2022-08-11T20:12:42.500Z,31.10
2022-08-11T20:15:04.163Z,31.00
2022-08-11T20:17:26.444Z,31.10
2022-08-11T20:19:55.445Z,31.10
2022-08-11T20:22:18.535Z,31.10
2022-08-11T20:24:40.309Z,31.00
2022-08-11T20:27:01.133Z,31.00
2022-08-11T20:29:21.491Z,31.00
2022-08-11T20:31:42.767Z,31.00
2022-08-11T20:34:03.909Z,31.10
2022-08-11T20:36:26.814Z,31.00
2022-08-11T20:38:49.929Z,31.10
2022-08-11T20:41:12.264Z,31.00
2022-08-11T20:44:07.762Z,31.00
2022-08-11T20:46:16.372Z,31.00
2022-08-11T20:48:38.943Z,31.00
2022-08-11T20:51:00.819Z,31.00
2022-08-11T20:53:28.848Z,31.00
2022-08-11T20:55:52.213Z,31.00
2022-08-11T20:58:18.268Z,31.00
2022-08-11T21:00:40.119Z,31.00
2022-08-11T21:03:00.937Z,31.00
2022-08-11T21:06:08.113Z,30.90
2022-08-11T21:08:07.853Z,31.00
2022-08-11T21:10:30.135Z,31.00
2022-08-11T21:12:55.576Z,31.00
2022-08-11T21:15:39.034Z,31.00
2022-08-11T21:18:06.792Z,30.90
2022-08-11T21:20:30.260Z,31.00
2022-08-11T21:23:05.565Z,30.90
2022-08-11T21:25:29.193Z,31.00
2022-08-11T21:27:51.964Z,31.00
2022-08-11T21:30:14.682Z,30.90
2022-08-11T21:32:36.133Z,31.00
2022-08-11T21:34:57.271Z,31.00
2022-08-11T21:37:20.070Z,30.90
2022-08-11T21:39:42.323Z,30.90
2022-08-11T21:42:03.290Z,30.90
2022-08-11T21:44:24.479Z,31.00
2022-08-11T21:46:45.734Z,30.90
2022-08-11T21:49:06.405Z,30.90
2022-08-11T21:51:26.705Z,30.90
2022-08-11T21:53:47.646Z,30.90
2022-08-11T21:56:10.052Z,30.90
2022-08-11T21:58:30.629Z,30.90
2022-08-11T22:00:51.908Z,30.90
2022-08-11T22:03:12.676Z,30.90
2022-08-11T22:05:34.540Z,30.90
2022-08-11T22:07:55.757Z,30.90
2022-08-11T22:10:36.973Z,30.90
2022-08-11T22:12:57.576Z,30.90
2022-08-11T22:15:18.364Z,30.90
2022-08-11T22:17:38.746Z,30.90
2022-08-11T22:20:00.865Z,30.90
2022-08-11T22:22:25.604Z,30.90
2022-08-11T22:24:48.458Z,30.90
2022-08-11T22:27:10.030Z,30.90
2022-08-11T22:29:38.315Z,30.90
2022-08-11T22:32:12.330Z,30.90
2022-08-11T22:34:33.129Z,30.90
2022-08-11T22:37:03.323Z,30.90
2022-08-11T22:39:26.609Z,30.90
2022-08-11T22:41:47.048Z,30.90
2022-08-11T22:44:07.578Z,30.90
2022-08-11T22:46:28.013Z,30.90
2022-08-11T22:48:49.346Z,30.90
2022-08-11T22:51:10.682Z,30.80
2022-08-11T22:53:57.501Z,30.80
2022-08-11T22:56:14.418Z,30.80
2022-08-11T22:58:36.412Z,30.90
2022-08-11T23:00:57.393Z,30.80
2022-08-11T23:03:37.841Z,30.80
2022-08-11T23:05:58.972Z,30.80
2022-08-11T23:08:20.584Z,30.80
2022-08-11T23:10:42.188Z,30.80
2022-08-11T23:13:03.011Z,30.80
2022-08-11T23:15:23.425Z,30.80
2022-08-11T23:17:45.094Z,30.80
2022-08-11T23:20:16.068Z,30.80
2022-08-11T23:22:50.337Z,30.80
2022-08-11T23:25:17.728Z,30.80
2022-08-11T23:27:39.362Z,30.80
2022-08-11T23:30:04.348Z,30.70
2022-08-11T23:32:25.215Z,30.70
2022-08-11T23:35:03.711Z,30.80
2022-08-11T23:37:29.647Z,30.70
2022-08-11T23:39:50.067Z,30.70
2022-08-11T23:42:10.596Z,30.70
2022-08-11T23:44:31.045Z,30.70
2022-08-11T23:46:52.512Z,30.70
2022-08-11T23:49:17.314Z,30.70
2022-08-11T23:51:41.295Z,30.70
2022-08-11T23:54:07.629Z,30.70
2022-08-11T23:56:29.241Z,30.70
2022-08-11T23:58:51.117Z,30.70
